sensor_id;sensor_type;location;lat;lon;timestamp;pressure;altitude;pressure_sealevel;temperature;humidity
20156;BME280;10238;49.556;10.956;2023-04-06T00:00:15;98632.72;;;-0.16;100.00
20156;BME280;10238;49.556;10.956;2023-04-06T00:03:07;98625.25;;;-0.22;100.00
20156;BME280;10238;49.556;10.956;2023-04-06T00:05:56;98624.63;;;-0.27;100.00
20156;BME280;10238;49.556;10.956;2023-04-06T00:08:44;98623.13;;;-0.31;100.00
20156;BME280;10238;49.556;10.956;2023-04-06T00:11:32;98618.13;;;-0.36;100.00
20156;BME280;10238;49.556;10.956;2023-04-06T00:14:21;98615.75;;;-0.40;100.00
20156;BME280;10238;49.556;10.956;2023-04-06T00:17:08;98610.84;;;-0.46;100.00
20156;BME280;10238;49.556;10.956;2023-04-06T00:19:57;98611.03;;;-0.49;100.00
20156;BME280;10238;49.556;10.956;2023-04-06T00:22:46;98619.09;;;-0.54;100.00
20156;BME280;10238;49.556;10.956;2023-04-06T00:25:34;98616.72;;;-0.58;100.00
20156;BME280;10238;49.556;10.956;2023-04-06T00:28:22;98615.19;;;-0.62;100.00
20156;BME280;10238;49.556;10.956;2023-04-06T00:31:13;98623.25;;;-0.67;100.00
20156;BME280;10238;49.556;10.956;2023-04-06T00:34:01;98617.44;;;-0.72;100.00
20156;BME280;10238;49.556;10.956;2023-04-06T00:36:48;98612.47;;;-0.76;100.00
20156;BME280;10238;49.556;10.956;2023-04-06T00:39:38;98611.78;;;-0.80;100.00
20156;BME280;10238;49.556;10.956;2023-04-06T00:42:25;98613.69;;;-0.83;100.00
20156;BME280;10238;49.556;10.956;2023-04-06T00:45:14;98613.09;;;-0.88;100.00
20156;BME280;10238;49.556;10.956;2023-04-06T00:48:01;98614.19;;;-0.92;100.00
20156;BME280;10238;49.556;10.956;2023-04-06T00:50:50;98609.19;;;-0.97;100.00
20156;BME280;10238;49.556;10.956;2023-04-06T00:53:38;98611.16;;;-1.02;100.00
20156;BME280;10238;49.556;10.956;2023-04-06T00:56:27;98606.97;;;-1.04;100.00
20156;BME280;10238;49.556;10.956;2023-04-06T00:59:15;98605.44;;;-1.08;100.00
20156;BME280;10238;49.556;10.956;2023-04-06T01:02:10;98605.66;;;-1.13;100.00
20156;BME280;10238;49.556;10.956;2023-04-06T01:04:57;98594.53;;;-1.16;100.00
20156;BME280;10238;49.556;10.956;2023-04-06T01:07:46;98599.13;;;-1.21;100.00
20156;BME280;10238;49.556;10.956;2023-04-06T01:10:43;98607.13;;;-1.24;100.00
20156;BME280;10238;49.556;10.956;2023-04-06T01:13:32;98604.75;;;-1.29;100.00
20156;BME280;10238;49.556;10.956;2023-04-06T01:16:20;98607.44;;;-1.30;100.00
20156;BME280;10238;49.556;10.956;2023-04-06T01:19:10;98607.66;;;-1.35;100.00
20156;BME280;10238;49.556;10.956;2023-04-06T01:21:58;98599.19;;;-1.40;100.00
20156;BME280;10238;49.556;10.956;2023-04-06T01:24:47;98589.84;;;-1.44;100.00
20156;BME280;10238;49.556;10.956;2023-04-06T01:27:35;98589.16;;;-1.47;100.00
20156;BME280;10238;49.556;10.956;2023-04-06T01:30:23;98586.69;;;-1.50;100.00
20156;BME280;10238;49.556;10.956;2023-04-06T01:33:11;98593.75;;;-1.52;100.00
20156;BME280;10238;49.556;10.956;2023-04-06T01:36:00;98590.53;;;-1.57;100.00
20156;BME280;10238;49.556;10.956;2023-04-06T01:38:47;98589.00;;;-1.61;100.00
20156;BME280;10238;49.556;10.956;2023-04-06T01:41:36;98583.16;;;-1.66;100.00
20156;BME280;10238;49.556;10.956;2023-04-06T01:44:24;98588.44;;;-1.68;100.00
20156;BME280;10238;49.556;10.956;2023-04-06T01:47:12;98590.28;;;-1.70;100.00
20156;BME280;10238;49.556;10.956;2023-04-06T01:50:01;98583.50;;;-1.74;100.00
20156;BME280;10238;49.556;10.956;2023-04-06T01:52:51;98584.50;;;-1.76;100.00
20156;BME280;10238;49.556;10.956;2023-04-06T01:55:39;98579.44;;;-1.79;100.00
20156;BME280;10238;49.556;10.956;2023-04-06T01:58:29;98583.97;;;-1.83;100.00
20156;BME280;10238;49.556;10.956;2023-04-06T02:01:17;98583.25;;;-1.86;100.00
20156;BME280;10238;49.556;10.956;2023-04-06T02:04:05;98584.41;;;-1.92;100.00
20156;BME280;10238;49.556;10.956;2023-04-06T02:06:53;98579.34;;;-1.95;100.00
20156;BME280;10238;49.556;10.956;2023-04-06T02:09:41;98587.22;;;-1.96;100.00
20156;BME280;10238;49.556;10.956;2023-04-06T02:12:29;98588.22;;;-1.99;100.00
20156;BME280;10238;49.556;10.956;2023-04-06T02:15:18;98585.69;;;-2.00;100.00
20156;BME280;10238;49.556;10.956;2023-04-06T02:18:06;98582.31;;;-2.02;100.00
20156;BME280;10238;49.556;10.956;2023-04-06T02:20:54;98585.97;;;-2.06;100.00
20156;BME280;10238;49.556;10.956;2023-04-06T02:23:43;98577.38;;;-2.08;100.00
20156;BME280;10238;49.556;10.956;2023-04-06T02:26:31;98583.66;;;-2.12;100.00
20156;BME280;10238;49.556;10.956;2023-04-06T02:29:19;98586.41;;;-2.15;100.00
20156;BME280;10238;49.556;10.956;2023-04-06T02:32:09;98575.19;;;-2.17;100.00
20156;BME280;10238;49.556;10.956;2023-04-06T02:34:57;98579.66;;;-2.19;100.00
20156;BME280;10238;49.556;10.956;2023-04-06T02:37:45;98578.94;;;-2.23;100.00
20156;BME280;10238;49.556;10.956;2023-04-06T02:40:33;98579.16;;;-2.28;100.00
20156;BME280;10238;49.556;10.956;2023-04-06T02:43:21;98573.31;;;-2.33;100.00
20156;BME280;10238;49.556;10.956;2023-04-06T02:46:09;98575.16;;;-2.35;100.00
20156;BME280;10238;49.556;10.956;2023-04-06T02:48:59;98579.50;;;-2.35;100.00
20156;BME280;10238;49.556;10.956;2023-04-06T02:51:47;98569.28;;;-2.40;100.00
20156;BME280;10238;49.556;10.956;2023-04-06T02:54:35;98573.75;;;-2.42;100.00
20156;BME280;10238;49.556;10.956;2023-04-06T02:57:23;98568.69;;;-2.45;100.00
20156;BME280;10238;49.556;10.956;2023-04-06T03:00:12;98577.38;;;-2.46;100.00
20156;BME280;10238;49.556;10.956;2023-04-06T03:03:00;98574.16;;;-2.51;100.00
20156;BME280;10238;49.556;10.956;2023-04-06T03:05:50;98574.22;;;-2.52;100.00
20156;BME280;10238;49.556;10.956;2023-04-06T03:08:38;98583.91;;;-2.56;100.00
20156;BME280;10238;49.556;10.956;2023-04-06T03:11:25;98584.06;;;-2.59;100.00
20156;BME280;10238;49.556;10.956;2023-04-06T03:14:13;98574.69;;;-2.63;100.00
20156;BME280;10238;49.556;10.956;2023-04-06T03:17:04;98569.50;;;-2.63;100.00
20156;BME280;10238;49.556;10.956;2023-04-06T03:19:52;98583.44;;;-2.64;100.00
20156;BME280;10238;49.556;10.956;2023-04-06T03:22:41;98578.38;;;-2.67;100.00
20156;BME280;10238;49.556;10.956;2023-04-06T03:25:29;98584.63;;;-2.71;100.00
20156;BME280;10238;49.556;10.956;2023-04-06T03:28:17;98577.72;;;-2.72;100.00
20156;BME280;10238;49.556;10.956;2023-04-06T03:31:06;98582.09;;;-2.72;100.00
20156;BME280;10238;49.556;10.956;2023-04-06T03:33:54;98585.66;;;-2.75;100.00
20156;BME280;10238;49.556;10.956;2023-04-06T03:36:41;98579.81;;;-2.80;100.00
20156;BME280;10238;49.556;10.956;2023-04-06T03:39:31;98579.03;;;-2.82;100.00
20156;BME280;10238;49.556;10.956;2023-04-06T03:42:19;98582.69;;;-2.86;100.00
20156;BME280;10238;49.556;10.956;2023-04-06T03:45:08;98577.63;;;-2.89;100.00
20156;BME280;10238;49.556;10.956;2023-04-06T03:47:56;98591.53;;;-2.90;100.00
20156;BME280;10238;49.556;10.956;2023-04-06T03:50:45;98586.41;;;-2.91;100.00
20156;BME280;10238;49.556;10.956;2023-04-06T03:53:33;98589.22;;;-2.96;100.00
20156;BME280;10238;49.556;10.956;2023-04-06T03:56:22;98594.41;;;-2.96;100.00
20156;BME280;10238;49.556;10.956;2023-04-06T03:59:10;98584.06;;;-2.97;100.00
20156;BME280;10238;49.556;10.956;2023-04-06T04:01:58;98587.63;;;-3.00;100.00
20156;BME280;10238;49.556;10.956;2023-04-06T04:04:46;98597.41;;;-3.05;100.00
20156;BME280;10238;49.556;10.956;2023-04-06T04:07:35;98594.00;;;-3.07;100.00
20156;BME280;10238;49.556;10.956;2023-04-06T04:10:23;98593.13;;;-3.06;100.00
20156;BME280;10238;49.556;10.956;2023-04-06T04:13:12;98594.94;;;-3.08;100.00
20156;BME280;10238;49.556;10.956;2023-04-06T04:16:00;98594.13;;;-3.10;100.00
20156;BME280;10238;49.556;10.956;2023-04-06T04:18:48;98605.50;;;-3.12;100.00
20156;BME280;10238;49.556;10.956;2023-04-06T04:21:43;98598.75;;;-3.16;100.00
20156;BME280;10238;49.556;10.956;2023-04-06T04:24:32;98600.63;;;-3.20;100.00
20156;BME280;10238;49.556;10.956;2023-04-06T04:27:20;98599.88;;;-3.22;100.00
20156;BME280;10238;49.556;10.956;2023-04-06T04:30:10;98600.06;;;-3.26;100.00
20156;BME280;10238;49.556;10.956;2023-04-06T04:32:58;98604.47;;;-3.28;100.00
20156;BME280;10238;49.556;10.956;2023-04-06T04:35:46;98605.44;;;-3.31;100.00
20156;BME280;10238;49.556;10.956;2023-04-06T04:38:34;98603.75;;;-3.32;100.00
20156;BME280;10238;49.556;10.956;2023-04-06T04:41:22;98606.47;;;-3.35;100.00
20156;BME280;10238;49.556;10.956;2023-04-06T04:44:10;98606.63;;;-3.38;100.00
20156;BME280;10238;49.556;10.956;2023-04-06T04:47:00;98605.84;;;-3.40;100.00
20156;BME280;10238;49.556;10.956;2023-04-06T04:49:47;98614.53;;;-3.41;100.00
20156;BME280;10238;49.556;10.956;2023-04-06T04:52:36;98611.16;;;-3.43;100.00
20156;BME280;10238;49.556;10.956;2023-04-06T04:55:25;98621.53;;;-3.43;100.00
20156;BME280;10238;49.556;10.956;2023-04-06T04:58:13;98616.34;;;-3.43;100.00
20156;BME280;10238;49.556;10.956;2023-04-06T05:01:03;98614.66;;;-3.44;100.00
20156;BME280;10238;49.556;10.956;2023-04-06T05:03:52;98613.94;;;-3.47;100.00
20156;BME280;10238;49.556;10.956;2023-04-06T05:06:41;98617.38;;;-3.47;100.00
20156;BME280;10238;49.556;10.956;2023-04-06T05:09:30;98613.94;;;-3.47;100.00
20156;BME280;10238;49.556;10.956;2023-04-06T05:12:18;98620.88;;;-3.48;100.00
20156;BME280;10238;49.556;10.956;2023-04-06T05:15:07;98618.28;;;-3.48;100.00
20156;BME280;10238;49.556;10.956;2023-04-06T05:17:56;98616.66;;;-3.50;100.00
20156;BME280;10238;49.556;10.956;2023-04-06T05:20:45;98622.78;;;-3.51;100.00
20156;BME280;10238;49.556;10.956;2023-04-06T05:23:33;98621.13;;;-3.54;100.00
20156;BME280;10238;49.556;10.956;2023-04-06T05:26:21;98615.16;;;-3.56;100.00
20156;BME280;10238;49.556;10.956;2023-04-06T05:29:09;98624.69;;;-3.56;100.00
20156;BME280;10238;49.556;10.956;2023-04-06T05:31:58;98628.91;;;-3.54;100.00
20156;BME280;10238;49.556;10.956;2023-04-06T05:34:46;98622.91;;;-3.54;100.00
20156;BME280;10238;49.556;10.956;2023-04-06T05:37:35;98629.75;;;-3.53;100.00
20156;BME280;10238;49.556;10.956;2023-04-06T05:40:23;98622.81;;;-3.53;100.00
20156;BME280;10238;49.556;10.956;2023-04-06T05:43:12;98629.59;;;-3.49;100.00
20156;BME280;10238;49.556;10.956;2023-04-06T05:46:00;98626.13;;;-3.49;100.00
20156;BME280;10238;49.556;10.956;2023-04-06T05:48:48;98635.44;;;-3.44;100.00
20156;BME280;10238;49.556;10.956;2023-04-06T05:51:36;98640.25;;;-3.35;100.00
20156;BME280;10238;49.556;10.956;2023-04-06T05:54:25;98644.31;;;-3.28;100.00
20156;BME280;10238;49.556;10.956;2023-04-06T05:57:13;98647.41;;;-3.20;100.00
20156;BME280;10238;49.556;10.956;2023-04-06T06:00:03;98656.66;;;-3.13;100.00
20156;BME280;10238;49.556;10.956;2023-04-06T06:02:53;98652.00;;;-3.05;100.00
20156;BME280;10238;49.556;10.956;2023-04-06T06:05:41;98656.56;;;-2.90;100.00
20156;BME280;10238;49.556;10.956;2023-04-06T06:08:29;98660.38;;;-2.78;100.00
20156;BME280;10238;49.556;10.956;2023-04-06T06:11:18;98665.75;;;-2.63;100.00
20156;BME280;10238;49.556;10.956;2023-04-06T06:14:06;98666.72;;;-2.45;100.00
20156;BME280;10238;49.556;10.956;2023-04-06T06:16:54;98661.81;;;-2.33;100.00
20156;BME280;10238;49.556;10.956;2023-04-06T06:19:42;98665.19;;;-2.31;100.00
20156;BME280;10238;49.556;10.956;2023-04-06T06:22:30;98660.97;;;-2.14;100.00
20156;BME280;10238;49.556;10.956;2023-04-06T06:25:18;98665.28;;;-1.76;100.00
20156;BME280;10238;49.556;10.956;2023-04-06T06:28:09;98668.84;;;-1.60;100.00
20156;BME280;10238;49.556;10.956;2023-04-06T06:30:57;98672.34;;;-1.43;100.00
20156;BME280;10238;49.556;10.956;2023-04-06T06:33:45;98668.03;;;-1.08;100.00
20156;BME280;10238;49.556;10.956;2023-04-06T06:36:33;98666.88;;;-1.03;100.00
20156;BME280;10238;49.556;10.956;2023-04-06T06:39:22;98667.31;;;-0.95;100.00
20156;BME280;10238;49.556;10.956;2023-04-06T06:42:10;98672.16;;;-0.87;100.00
20156;BME280;10238;49.556;10.956;2023-04-06T06:45:01;98667.84;;;-0.71;100.00
20156;BME280;10238;49.556;10.956;2023-04-06T06:47:49;98668.59;;;-0.52;100.00
20156;BME280;10238;49.556;10.956;2023-04-06T06:50:41;98662.44;;;-0.34;100.00
20156;BME280;10238;49.556;10.956;2023-04-06T06:53:29;98663.31;;;-0.18;100.00
20156;BME280;10238;49.556;10.956;2023-04-06T06:56:17;98663.59;;;-0.07;100.00
20156;BME280;10238;49.556;10.956;2023-04-06T06:59:05;98663.00;;;0.03;100.00
20156;BME280;10238;49.556;10.956;2023-04-06T07:01:55;98661.00;;;0.24;100.00
20156;BME280;10238;49.556;10.956;2023-04-06T07:04:43;98659.75;;;0.47;100.00
20156;BME280;10238;49.556;10.956;2023-04-06T07:07:32;98655.59;;;0.58;100.00
20156;BME280;10238;49.556;10.956;2023-04-06T07:10:21;98653.97;;;0.71;100.00
20156;BME280;10238;49.556;10.956;2023-04-06T07:13:09;98649.91;;;0.81;100.00
20156;BME280;10238;49.556;10.956;2023-04-06T07:15:58;98647.75;;;1.03;100.00
20156;BME280;10238;49.556;10.956;2023-04-06T07:18:47;98644.81;;;1.23;100.00
20156;BME280;10238;49.556;10.956;2023-04-06T07:21:35;98637.94;;;1.50;100.00
20156;BME280;10238;49.556;10.956;2023-04-06T07:24:23;98635.31;;;1.78;100.00
20156;BME280;10238;49.556;10.956;2023-04-06T07:27:11;98635.22;;;1.80;100.00
20156;BME280;10238;49.556;10.956;2023-04-06T07:29:59;98642.97;;;2.09;100.00
20156;BME280;10238;49.556;10.956;2023-04-06T07:32:47;98632.19;;;2.28;100.00
20156;BME280;10238;49.556;10.956;2023-04-06T07:35:38;98632.56;;;2.63;100.00
20156;BME280;10238;49.556;10.956;2023-04-06T07:38:26;98629.66;;;2.80;100.00
20156;BME280;10238;49.556;10.956;2023-04-06T07:41:14;98625.91;;;2.84;100.00
20156;BME280;10238;49.556;10.956;2023-04-06T07:44:03;98632.09;;;3.22;100.00
20156;BME280;10238;49.556;10.956;2023-04-06T07:46:51;98623.59;;;3.31;100.00
20156;BME280;10238;49.556;10.956;2023-04-06T07:49:39;98628.03;;;3.43;100.00
20156;BME280;10238;49.556;10.956;2023-04-06T07:52:29;98623.72;;;3.54;100.00
20156;BME280;10238;49.556;10.956;2023-04-06T07:55:18;98617.19;;;3.60;100.00
20156;BME280;10238;49.556;10.956;2023-04-06T07:58:06;98624.16;;;3.86;100.00
20156;BME280;10238;49.556;10.956;2023-04-06T08:00:54;98615.91;;;4.03;100.00
20156;BME280;10238;49.556;10.956;2023-04-06T08:03:44;98619.34;;;4.16;100.00
20156;BME280;10238;49.556;10.956;2023-04-06T08:06:32;98612.09;;;4.43;100.00
20156;BME280;10238;49.556;10.956;2023-04-06T08:09:22;98610.25;;;4.80;100.00
20156;BME280;10238;49.556;10.956;2023-04-06T08:12:10;98601.34;;;4.93;100.00
20156;BME280;10238;49.556;10.956;2023-04-06T08:14:58;98606.00;;;5.13;100.00
20156;BME280;10238;49.556;10.956;2023-04-06T08:17:46;98610.66;;;5.10;100.00
20156;BME280;10238;49.556;10.956;2023-04-06T08:20:35;98610.16;;;5.50;100.00
20156;BME280;10238;49.556;10.956;2023-04-06T08:23:23;98608.25;;;5.63;98.34
20156;BME280;10238;49.556;10.956;2023-04-06T08:26:12;98612.16;;;5.81;97.94
20156;BME280;10238;49.556;10.956;2023-04-06T08:29:01;98605.03;;;6.26;96.88
20156;BME280;10238;49.556;10.956;2023-04-06T08:31:50;98604.06;;;6.49;95.89
20156;BME280;10238;49.556;10.956;2023-04-06T08:34:38;98598.00;;;6.69;90.45
20156;BME280;10238;49.556;10.956;2023-04-06T08:37:27;98601.69;;;6.89;89.91
20156;BME280;10238;49.556;10.956;2023-04-06T08:40:15;98599.00;;;7.20;83.76
20156;BME280;10238;49.556;10.956;2023-04-06T08:43:09;98596.81;;;7.25;79.72
20156;BME280;10238;49.556;10.956;2023-04-06T08:45:59;98596.75;;;7.57;83.04
20156;BME280;10238;49.556;10.956;2023-04-06T08:48:47;98592.47;;;7.65;83.02
20156;BME280;10238;49.556;10.956;2023-04-06T08:51:39;98596.06;;;7.85;79.88
20156;BME280;10238;49.556;10.956;2023-04-06T08:54:29;98600.94;;;8.10;75.53
20156;BME280;10238;49.556;10.956;2023-04-06T08:57:18;98596.75;;;8.37;74.45
20156;BME280;10238;49.556;10.956;2023-04-06T09:00:10;98588.28;;;8.62;76.65
20156;BME280;10238;49.556;10.956;2023-04-06T09:02:59;98585.53;;;8.83;74.68
20156;BME280;10238;49.556;10.956;2023-04-06T09:05:47;98585.50;;;9.21;79.65
20156;BME280;10238;49.556;10.956;2023-04-06T09:08:41;98580.19;;;9.40;74.72
20156;BME280;10238;49.556;10.956;2023-04-06T09:11:29;98579.66;;;9.18;69.30
20156;BME280;10238;49.556;10.956;2023-04-06T09:14:35;98578.16;;;9.80;72.12
20156;BME280;10238;49.556;10.956;2023-04-06T09:17:27;98572.34;;;10.40;77.42
20156;BME280;10238;49.556;10.956;2023-04-06T09:20:22;98574.94;;;10.23;65.70
20156;BME280;10238;49.556;10.956;2023-04-06T09:23:18;98573.81;;;10.25;63.00
20156;BME280;10238;49.556;10.956;2023-04-06T09:26:07;98568.41;;;10.44;64.20
20156;BME280;10238;49.556;10.956;2023-04-06T09:28:57;98563.53;;;10.13;61.09
20156;BME280;10238;49.556;10.956;2023-04-06T09:31:46;98566.63;;;10.62;62.82
20156;BME280;10238;49.556;10.956;2023-04-06T09:34:36;98566.78;;;10.78;61.83
20156;BME280;10238;49.556;10.956;2023-04-06T09:37:27;98555.38;;;11.39;61.16
20156;BME280;10238;49.556;10.956;2023-04-06T09:40:16;98562.16;;;11.59;67.25
20156;BME280;10238;49.556;10.956;2023-04-06T09:43:05;98546.16;;;13.01;72.65
20156;BME280;10238;49.556;10.956;2023-04-06T09:45:53;98542.41;;;12.86;67.12
20156;BME280;10238;49.556;10.956;2023-04-06T09:48:43;98545.16;;;13.34;60.29
20156;BME280;10238;49.556;10.956;2023-04-06T09:51:37;98532.69;;;13.97;70.51
20156;BME280;10238;49.556;10.956;2023-04-06T09:54:29;98530.13;;;14.89;63.26
20156;BME280;10238;49.556;10.956;2023-04-06T09:57:24;98531.56;;;15.45;65.87
20156;BME280;10238;49.556;10.956;2023-04-06T10:00:16;98529.78;;;15.37;59.05
20156;BME280;10238;49.556;10.956;2023-04-06T10:03:14;98519.72;;;16.20;67.10
20156;BME280;10238;49.556;10.956;2023-04-06T10:06:11;98509.19;;;17.25;61.66
20156;BME280;10238;49.556;10.956;2023-04-06T10:09:03;98506.28;;;17.75;61.16
20156;BME280;10238;49.556;10.956;2023-04-06T10:11:52;98519.72;;;16.34;43.87
20156;BME280;10238;49.556;10.956;2023-04-06T10:14:40;98523.28;;;14.86;47.06
20156;BME280;10238;49.556;10.956;2023-04-06T10:17:28;98520.59;;;14.86;47.90
20156;BME280;10238;49.556;10.956;2023-04-06T10:20:21;98515.47;;;15.45;51.79
20156;BME280;10238;49.556;10.956;2023-04-06T10:23:12;98506.16;;;17.83;60.75
20156;BME280;10238;49.556;10.956;2023-04-06T10:26:04;98497.13;;;18.31;57.12
20156;BME280;10238;49.556;10.956;2023-04-06T10:28:52;98499.72;;;17.50;51.22
20156;BME280;10238;49.556;10.956;2023-04-06T10:31:43;98500.59;;;17.36;55.21
20156;BME280;10238;49.556;10.956;2023-04-06T10:34:35;98508.91;;;15.47;42.53
20156;BME280;10238;49.556;10.956;2023-04-06T10:37:23;98505.53;;;15.68;43.32
20156;BME280;10238;49.556;10.956;2023-04-06T10:40:19;98491.53;;;16.95;60.83
20156;BME280;10238;49.556;10.956;2023-04-06T10:43:10;98502.81;;;14.93;43.09
20156;BME280;10238;49.556;10.956;2023-04-06T10:46:00;98485.81;;;17.47;57.20
20156;BME280;10238;49.556;10.956;2023-04-06T10:48:49;98481.53;;;18.61;59.20
20156;BME280;10238;49.556;10.956;2023-04-06T10:51:38;98480.69;;;17.79;42.34
20156;BME280;10238;49.556;10.956;2023-04-06T10:54:27;98497.09;;;15.42;41.26
20156;BME280;10238;49.556;10.956;2023-04-06T10:57:15;98489.47;;;15.97;49.50
20156;BME280;10238;49.556;10.956;2023-04-06T11:00:07;98487.03;;;17.02;52.93
20156;BME280;10238;49.556;10.956;2023-04-06T11:02:59;98469.63;;;19.15;61.24
20156;BME280;10238;49.556;10.956;2023-04-06T11:05:50;98468.00;;;19.67;46.29
20156;BME280;10238;49.556;10.956;2023-04-06T11:08:39;98473.72;;;17.57;51.87
20156;BME280;10238;49.556;10.956;2023-04-06T11:11:27;98467.13;;;19.99;59.88
20156;BME280;10238;49.556;10.956;2023-04-06T11:14:15;98458.88;;;20.95;54.77
20156;BME280;10238;49.556;10.956;2023-04-06T11:17:04;98447.53;;;21.60;55.22
20156;BME280;10238;49.556;10.956;2023-04-06T11:19:53;98450.16;;;22.27;52.38
20156;BME280;10238;49.556;10.956;2023-04-06T11:22:51;98442.03;;;22.45;49.18
20156;BME280;10238;49.556;10.956;2023-04-06T11:25:39;98440.00;;;22.41;45.96
20156;BME280;10238;49.556;10.956;2023-04-06T11:28:37;98442.91;;;22.75;45.78
20156;BME280;10238;49.556;10.956;2023-04-06T11:31:26;98437.03;;;22.78;46.83
20156;BME280;10238;49.556;10.956;2023-04-06T11:34:17;98431.72;;;23.13;46.80
20156;BME280;10238;49.556;10.956;2023-04-06T11:37:08;98433.34;;;23.02;43.45
20156;BME280;10238;49.556;10.956;2023-04-06T11:39:56;98438.94;;;21.88;40.16
20156;BME280;10238;49.556;10.956;2023-04-06T11:42:52;98431.97;;;20.69;37.91
20156;BME280;10238;49.556;10.956;2023-04-06T11:45:42;98433.31;;;20.84;46.33
20156;BME280;10238;49.556;10.956;2023-04-06T11:48:31;98415.34;;;22.31;50.33
20156;BME280;10238;49.556;10.956;2023-04-06T11:51:24;98410.97;;;23.18;47.18
20156;BME280;10238;49.556;10.956;2023-04-06T11:54:13;98414.34;;;23.67;45.94
20156;BME280;10238;49.556;10.956;2023-04-06T11:57:01;98414.16;;;22.74;37.54
20156;BME280;10238;49.556;10.956;2023-04-06T11:59:49;98413.44;;;21.77;47.15
20156;BME280;10238;49.556;10.956;2023-04-06T12:02:37;98400.66;;;23.39;43.85
20156;BME280;10238;49.556;10.956;2023-04-06T12:05:25;98402.28;;;23.86;42.66
20156;BME280;10238;49.556;10.956;2023-04-06T12:08:15;98397.75;;;24.26;41.91
20156;BME280;10238;49.556;10.956;2023-04-06T12:11:03;98385.16;;;24.48;40.31
20156;BME280;10238;49.556;10.956;2023-04-06T12:13:51;98400.22;;;24.27;38.76
20156;BME280;10238;49.556;10.956;2023-04-06T12:16:39;98403.69;;;24.23;40.96
20156;BME280;10238;49.556;10.956;2023-04-06T12:19:28;98390.22;;;24.16;41.63
20156;BME280;10238;49.556;10.956;2023-04-06T12:22:18;98396.41;;;23.66;38.25
20156;BME280;10238;49.556;10.956;2023-04-06T12:25:08;98388.47;;;24.10;42.08
20156;BME280;10238;49.556;10.956;2023-04-06T12:27:56;98383.50;;;24.47;41.73
20156;BME280;10238;49.556;10.956;2023-04-06T12:30:44;98380.63;;;24.65;42.03
20156;BME280;10238;49.556;10.956;2023-04-06T12:33:32;98372.81;;;24.57;38.15
20156;BME280;10238;49.556;10.956;2023-04-06T12:36:21;98388.63;;;21.80;30.56
20156;BME280;10238;49.556;10.956;2023-04-06T12:39:09;98384.81;;;22.83;39.57
20156;BME280;10238;49.556;10.956;2023-04-06T12:41:58;98381.41;;;23.63;41.75
20156;BME280;10238;49.556;10.956;2023-04-06T12:44:46;98373.75;;;24.34;43.02
20156;BME280;10238;49.556;10.956;2023-04-06T12:47:34;98370.84;;;24.80;39.53
20156;BME280;10238;49.556;10.956;2023-04-06T12:50:24;98368.16;;;24.97;37.47
20156;BME280;10238;49.556;10.956;2023-04-06T12:53:12;98370.47;;;25.05;38.64
20156;BME280;10238;49.556;10.956;2023-04-06T12:56:01;98366.69;;;25.06;41.02
20156;BME280;10238;49.556;10.956;2023-04-06T12:58:51;98367.38;;;24.57;40.98
20156;BME280;10238;49.556;10.956;2023-04-06T13:01:40;98370.94;;;24.85;39.27
20156;BME280;10238;49.556;10.956;2023-04-06T13:04:27;98363.03;;;25.00;38.67
20156;BME280;10238;49.556;10.956;2023-04-06T13:07:15;98354.88;;;24.28;30.64
20156;BME280;10238;49.556;10.956;2023-04-06T13:10:04;98364.75;;;21.95;31.54
20156;BME280;10238;49.556;10.956;2023-04-06T13:12:52;98374.34;;;22.86;35.23
20156;BME280;10238;49.556;10.956;2023-04-06T13:15:42;98359.59;;;22.23;37.00
20156;BME280;10238;49.556;10.956;2023-04-06T13:18:30;98365.34;;;21.37;34.93
20156;BME280;10238;49.556;10.956;2023-04-06T13:21:19;98360.75;;;23.16;36.03
20156;BME280;10238;49.556;10.956;2023-04-06T13:24:07;98354.34;;;23.10;37.71
20156;BME280;10238;49.556;10.956;2023-04-06T13:26:55;98346.34;;;23.04;35.20
20156;BME280;10238;49.556;10.956;2023-04-06T13:29:43;98352.88;;;23.26;38.88
20156;BME280;10238;49.556;10.956;2023-04-06T13:32:33;98352.03;;;23.25;40.88
20156;BME280;10238;49.556;10.956;2023-04-06T13:35:21;98346.09;;;23.98;39.71
20156;BME280;10238;49.556;10.956;2023-04-06T13:38:09;98348.84;;;22.46;33.40
20156;BME280;10238;49.556;10.956;2023-04-06T13:40:58;98345.72;;;22.49;37.03
20156;BME280;10238;49.556;10.956;2023-04-06T13:43:46;98341.16;;;22.61;35.83
20156;BME280;10238;49.556;10.956;2023-04-06T13:46:33;98340.66;;;22.82;38.91
20156;BME280;10238;49.556;10.956;2023-04-06T13:49:23;98331.78;;;23.91;41.15
20156;BME280;10238;49.556;10.956;2023-04-06T13:52:11;98336.69;;;23.43;33.86
20156;BME280;10238;49.556;10.956;2023-04-06T13:54:59;98326.34;;;24.14;35.95
20156;BME280;10238;49.556;10.956;2023-04-06T13:57:48;98336.81;;;22.60;30.85
20156;BME280;10238;49.556;10.956;2023-04-06T14:00:36;98335.63;;;21.91;34.86
20156;BME280;10238;49.556;10.956;2023-04-06T14:03:24;98343.84;;;20.92;37.58
20156;BME280;10238;49.556;10.956;2023-04-06T14:06:14;98343.06;;;19.73;36.57
20156;BME280;10238;49.556;10.956;2023-04-06T14:09:05;98337.56;;;20.43;35.43
20156;BME280;10238;49.556;10.956;2023-04-06T14:11:54;98324.19;;;21.35;39.38
20156;BME280;10238;49.556;10.956;2023-04-06T14:14:42;98337.03;;;21.39;35.65
20156;BME280;10238;49.556;10.956;2023-04-06T14:17:30;98332.09;;;20.56;37.83
20156;BME280;10238;49.556;10.956;2023-04-06T14:20:19;98325.91;;;21.47;37.07
20156;BME280;10238;49.556;10.956;2023-04-06T14:23:08;98330.31;;;21.84;40.81
20156;BME280;10238;49.556;10.956;2023-04-06T14:26:04;98323.81;;;21.67;39.95
20156;BME280;10238;49.556;10.956;2023-04-06T14:28:52;98322.66;;;20.65;31.80
20156;BME280;10238;49.556;10.956;2023-04-06T14:31:40;98324.72;;;21.61;41.77
20156;BME280;10238;49.556;10.956;2023-04-06T14:34:28;98318.13;;;21.93;39.19
20156;BME280;10238;49.556;10.956;2023-04-06T14:37:16;98321.19;;;22.44;42.57